createdAt,value
2019-03-17T00:00:13.060Z,98760.46
2019-03-17T00:02:42.239Z,98748.48
2019-03-17T00:05:11.685Z,98752.58
2019-03-17T00:07:40.871Z,98754.49
2019-03-17T00:10:10.125Z,98736.34
2019-03-17T00:12:39.421Z,98737.16
2019-03-17T00:15:08.687Z,98744.89
2019-03-17T00:17:37.875Z,98729.91
2019-03-17T00:20:07.302Z,98730.14
2019-03-17T00:22:37.251Z,98732.38
2019-03-17T00:25:09.729Z,98725.87
2019-03-17T00:27:37.364Z,98720.17
2019-03-17T00:30:08.819Z,98714.89
2019-03-17T00:32:37.963Z,98708.42
2019-03-17T00:35:07.309Z,98708.02
2019-03-17T00:37:36.466Z,98717.95
2019-03-17T00:40:06.147Z,98702.78
2019-03-17T00:42:35.317Z,98704.01
2019-03-17T00:45:04.941Z,98707.84
2019-03-17T00:47:34.085Z,98690.86
2019-03-17T00:50:03.255Z,98702.83
2019-03-17T00:52:32.517Z,98687.58
2019-03-17T00:55:01.686Z,98701.91
2019-03-17T00:57:30.867Z,98678.34
2019-03-17T01:00:00.457Z,98676.16
2019-03-17T01:02:29.671Z,98680.58
2019-03-17T01:04:58.875Z,98670.88
2019-03-17T01:07:28.253Z,98658.55
2019-03-17T01:09:57.449Z,98661.14
2019-03-17T01:12:26.628Z,98665.97
2019-03-17T01:14:55.845Z,98662.01
2019-03-17T01:17:25.035Z,98653.17
2019-03-17T01:19:54.238Z,98658.77
2019-03-17T01:22:23.529Z,98642.02
2019-03-17T01:24:52.704Z,98641.20
2019-03-17T01:27:21.913Z,98632.38
2019-03-17T01:29:51.138Z,98637.75
2019-03-17T01:32:20.333Z,98615.31
2019-03-17T01:34:49.526Z,98619.08
2019-03-17T01:37:18.734Z,98627.09
2019-03-17T01:39:47.920Z,98619.28
2019-03-17T01:42:18.538Z,98607.50
2019-03-17T01:44:47.924Z,98610.45
2019-03-17T01:47:17.102Z,98600.39
2019-03-17T01:49:46.318Z,98586.55
2019-03-17T01:52:15.570Z,98593.02
2019-03-17T01:54:44.766Z,98580.17
2019-03-17T01:57:14.117Z,98592.56
2019-03-17T01:59:43.306Z,98571.75
2019-03-17T02:02:12.486Z,98575.25
2019-03-17T02:04:41.711Z,98582.77
2019-03-17T02:07:10.866Z,98570.02
2019-03-17T02:09:40.066Z,98565.66
2019-03-17T02:12:09.276Z,98570.98
2019-03-17T02:14:38.463Z,98562.05
2019-03-17T02:17:07.673Z,98546.67
2019-03-17T02:19:36.839Z,98548.45
2019-03-17T02:22:06.075Z,98540.98
2019-03-17T02:24:37.048Z,98549.27
2019-03-17T02:27:06.277Z,98536.21
2019-03-17T02:29:35.475Z,98533.52
2019-03-17T02:32:04.633Z,98542.30
2019-03-17T02:34:33.827Z,98524.73
2019-03-17T02:37:03.017Z,98534.48
2019-03-17T02:39:32.215Z,98538.45
2019-03-17T02:42:01.422Z,98511.18
2019-03-17T02:44:32.056Z,98507.58
2019-03-17T02:47:01.224Z,98493.38
2019-03-17T02:49:30.397Z,98489.20
2019-03-17T02:51:59.582Z,98483.62
2019-03-17T02:54:28.780Z,98492.30
2019-03-17T02:56:58.072Z,98490.27
2019-03-17T02:59:27.211Z,98488.80
2019-03-17T03:01:56.678Z,98476.14
2019-03-17T03:04:25.844Z,98494.42
2019-03-17T03:06:55.320Z,98489.75
2019-03-17T03:09:24.497Z,98500.81
2019-03-17T03:11:53.738Z,98491.42
2019-03-17T03:14:22.915Z,98493.30
2019-03-17T03:16:52.117Z,98486.34
2019-03-17T03:19:21.303Z,98488.12
2019-03-17T03:21:50.490Z,98484.92
2019-03-17T03:24:19.648Z,98493.61
2019-03-17T03:26:48.848Z,98478.69
2019-03-17T03:29:18.050Z,98473.45
2019-03-17T03:31:47.264Z,98475.59
2019-03-17T03:34:16.439Z,98474.22
2019-03-17T03:36:45.662Z,98461.48
2019-03-17T03:39:14.834Z,98458.38
2019-03-17T03:41:44.016Z,98465.39
2019-03-17T03:44:13.183Z,98462.55
2019-03-17T03:46:42.355Z,98459.45
2019-03-17T03:49:11.566Z,98459.25
2019-03-17T03:51:40.760Z,98452.80
2019-03-17T03:54:09.949Z,98456.00
2019-03-17T03:56:39.173Z,98459.09
2019-03-17T03:59:08.453Z,98448.59
2019-03-17T04:01:37.643Z,98452.19
2019-03-17T04:04:06.969Z,98447.42
2019-03-17T04:06:36.174Z,98450.88
2019-03-17T04:09:07.574Z,98462.23
2019-03-17T04:11:36.708Z,98437.02
2019-03-17T04:14:05.910Z,98441.42
2019-03-17T04:16:35.073Z,98433.91
2019-03-17T04:19:04.376Z,98434.98
2019-03-17T04:21:33.565Z,98425.91
2019-03-17T04:24:02.772Z,98422.44
2019-03-17T04:26:32.049Z,98432.75
2019-03-17T04:29:01.253Z,98397.30
2019-03-17T04:31:30.436Z,98427.22
2019-03-17T04:33:59.600Z,98427.22
2019-03-17T04:36:39.556Z,98421.64
2019-03-17T04:38:59.708Z,98424.18
2019-03-17T04:41:28.892Z,98413.52
2019-03-17T04:43:58.057Z,98414.44
2019-03-17T04:46:27.242Z,98453.67
2019-03-17T04:48:56.532Z,98426.52
2019-03-17T04:51:25.685Z,98418.60
2019-03-17T04:53:54.851Z,98410.69
2019-03-17T04:56:24.052Z,98417.17
2019-03-17T04:58:53.238Z,98416.72
2019-03-17T05:01:22.435Z,98418.09
2019-03-17T05:03:51.601Z,98414.89
2019-03-17T05:06:20.783Z,98412.61
2019-03-17T05:08:49.997Z,98431.19
2019-03-17T05:11:19.182Z,98416.00
2019-03-17T05:13:48.377Z,98416.36
2019-03-17T05:16:17.549Z,98418.53
2019-03-17T05:18:46.701Z,98425.70
2019-03-17T05:21:15.876Z,98418.69
2019-03-17T05:23:45.037Z,98423.21
2019-03-17T05:26:14.261Z,98426.20
2019-03-17T05:28:43.436Z,98430.27
2019-03-17T05:31:12.771Z,98413.58
2019-03-17T05:33:41.944Z,98419.20
2019-03-17T05:36:11.105Z,98435.20
2019-03-17T05:38:40.285Z,98440.42
2019-03-17T05:41:09.503Z,98454.42
2019-03-17T05:43:38.734Z,98439.86
2019-03-17T05:46:07.902Z,98432.91
2019-03-17T05:48:37.085Z,98425.85
2019-03-17T05:51:06.290Z,98434.12
2019-03-17T05:53:35.480Z,98432.40
2019-03-17T05:56:04.666Z,98440.42
2019-03-17T05:58:33.834Z,98433.31
2019-03-17T06:01:03.020Z,98438.23
2019-03-17T06:03:32.202Z,98447.67
2019-03-17T06:06:01.388Z,98434.94
2019-03-17T06:08:33.497Z,98456.50
2019-03-17T06:11:01.520Z,98462.64
2019-03-17T06:13:30.719Z,98451.58
2019-03-17T06:16:03.026Z,98447.22
2019-03-17T06:18:32.209Z,98442.85
2019-03-17T06:21:01.415Z,98453.05
2019-03-17T06:23:30.609Z,98449.05
2019-03-17T06:25:59.797Z,98448.23
2019-03-17T06:28:29.015Z,98458.17
2019-03-17T06:30:58.228Z,98463.10
2019-03-17T06:33:27.431Z,98452.59
2019-03-17T06:35:56.623Z,98465.08
2019-03-17T06:38:25.823Z,98469.14
2019-03-17T06:40:55.177Z,98479.95
2019-03-17T06:43:24.354Z,98479.28
2019-03-17T06:45:53.539Z,98477.87
2019-03-17T06:48:22.736Z,98478.69
2019-03-17T06:50:51.922Z,98472.23
2019-03-17T06:53:21.126Z,98485.98
2019-03-17T06:55:50.370Z,98491.77
2019-03-17T06:58:19.568Z,98482.02
2019-03-17T07:00:48.730Z,98486.08
2019-03-17T07:03:17.956Z,98492.27
2019-03-17T07:05:47.123Z,98489.17
2019-03-17T07:08:16.320Z,98486.80
2019-03-17T07:10:45.522Z,98497.39
2019-03-17T07:13:14.770Z,98495.41
2019-03-17T07:15:43.946Z,98502.59
2019-03-17T07:18:13.137Z,98501.95
2019-03-17T07:20:42.310Z,98501.01
2019-03-17T07:23:11.539Z,98505.92
2019-03-17T07:25:40.718Z,98506.78
2019-03-17T07:28:09.939Z,98516.52
2019-03-17T07:30:39.073Z,98515.89
2019-03-17T07:33:08.272Z,98517.44
2019-03-17T07:35:37.847Z,98526.39
2019-03-17T07:38:07.075Z,98529.16
2019-03-17T07:40:36.301Z,98401.90
2019-03-17T07:43:05.603Z,98529.64
2019-03-17T07:45:34.787Z,98531.78
2019-03-17T07:48:04.097Z,98529.37
2019-03-17T07:50:33.301Z,98527.69
2019-03-17T07:53:02.501Z,98529.87
2019-03-17T07:55:31.727Z,98527.10
2019-03-17T07:58:00.893Z,98522.41
2019-03-17T08:00:32.118Z,98526.03
2019-03-17T08:03:01.008Z,98537.94
2019-03-17T08:05:30.293Z,98532.76
2019-03-17T08:08:08.755Z,98544.61
2019-03-17T08:10:30.374Z,98543.30
2019-03-17T08:12:59.550Z,98537.53
2019-03-17T08:15:28.742Z,98539.25
2019-03-17T08:17:57.927Z,98541.07
2019-03-17T08:20:27.314Z,98546.66
2019-03-17T08:22:56.512Z,98542.09
2019-03-17T08:25:25.737Z,98547.81
2019-03-17T08:27:54.914Z,98558.14
2019-03-17T08:30:24.191Z,98563.28
2019-03-17T08:32:53.446Z,98562.50
2019-03-17T08:35:22.707Z,98555.01
2019-03-17T08:37:51.873Z,98563.09
2019-03-17T08:40:21.103Z,98560.63
2019-03-17T08:42:50.432Z,98569.36
2019-03-17T08:45:19.648Z,98583.03
2019-03-17T08:47:57.831Z,98581.79
2019-03-17T08:50:19.873Z,98588.30
2019-03-17T08:52:49.072Z,98586.15
2019-03-17T08:55:18.321Z,98584.01
2019-03-17T08:57:47.495Z,98587.55
2019-03-17T09:00:16.712Z,98592.87
2019-03-17T09:02:46.008Z,98590.81
2019-03-17T09:05:15.205Z,98600.94
2019-03-17T09:07:44.399Z,98601.02
2019-03-17T09:10:13.769Z,98601.92
2019-03-17T09:12:42.948Z,98605.87
2019-03-17T09:15:12.417Z,98608.55
2019-03-17T09:17:41.627Z,98631.81
2019-03-17T09:20:11.386Z,98682.20
2019-03-17T09:22:40.618Z,98684.89
2019-03-17T09:25:10.374Z,98700.81
2019-03-17T09:27:39.886Z,98706.00
2019-03-17T09:30:11.073Z,98696.69
2019-03-17T09:32:40.415Z,98692.81
2019-03-17T09:35:09.931Z,98688.97
2019-03-17T09:37:39.284Z,98671.89
2019-03-17T09:40:09.387Z,98663.14
2019-03-17T09:42:38.624Z,98675.28
2019-03-17T09:45:08.428Z,98677.89
2019-03-17T09:47:37.616Z,98700.18
2019-03-17T09:50:08.185Z,98695.34
2019-03-17T09:52:40.590Z,98695.25
2019-03-17T09:55:10.229Z,98705.39
2019-03-17T09:57:39.447Z,98714.48
2019-03-17T10:00:10.292Z,98712.13
2019-03-17T10:02:39.672Z,98732.98
2019-03-17T10:05:09.811Z,98733.96
2019-03-17T10:07:39.109Z,98746.77
2019-03-17T10:10:09.833Z,98743.27
2019-03-17T10:12:39.147Z,98741.94
2019-03-17T10:15:11.112Z,98748.23
2019-03-17T10:17:40.351Z,98750.97
2019-03-17T10:20:12.181Z,98743.70
2019-03-17T10:22:41.458Z,98751.65
2019-03-17T10:25:11.063Z,98760.41
2019-03-17T10:27:40.488Z,98761.73
2019-03-17T10:30:11.566Z,98770.02
2019-03-17T10:32:40.813Z,98765.16
2019-03-17T10:35:10.245Z,98761.55
2019-03-17T10:37:39.455Z,98763.48
2019-03-17T10:40:11.649Z,98771.11
2019-03-17T10:42:40.856Z,98774.28
2019-03-17T10:45:10.667Z,98771.56
2019-03-17T10:47:39.880Z,98780.11
2019-03-17T10:50:11.338Z,98788.77
2019-03-17T10:52:40.536Z,98789.35
2019-03-17T10:55:10.874Z,98800.41
2019-03-17T10:57:40.101Z,98787.39
2019-03-17T11:00:12.147Z,98783.17
2019-03-17T11:02:41.361Z,98776.94
2019-03-17T11:05:11.355Z,98779.55
2019-03-17T11:07:40.583Z,98796.98
2019-03-17T11:10:12.651Z,98808.91
2019-03-17T11:12:41.865Z,98803.30
2019-03-17T11:15:12.968Z,98807.10
2019-03-17T11:17:42.194Z,98802.06
2019-03-17T11:20:11.557Z,98798.80
2019-03-17T11:22:40.773Z,98788.94
2019-03-17T11:25:10.179Z,98800.93
2019-03-17T11:27:39.435Z,98795.23
2019-03-17T11:30:12.155Z,98799.00
2019-03-17T11:32:41.388Z,98806.72
2019-03-17T11:35:10.815Z,98801.77
2019-03-17T11:37:40.090Z,98796.34
2019-03-17T11:40:10.854Z,98793.61
2019-03-17T11:42:40.321Z,98770.28
2019-03-17T11:45:11.747Z,98774.73
2019-03-17T11:47:40.968Z,98786.20
2019-03-17T11:50:13.345Z,98789.25
2019-03-17T11:52:42.636Z,98794.07
2019-03-17T11:55:11.948Z,98790.36
2019-03-17T11:57:41.838Z,98801.30
2019-03-17T12:00:13.148Z,98793.96
2019-03-17T12:02:42.390Z,98795.77
2019-03-17T12:05:12.062Z,98804.17
2019-03-17T12:07:41.304Z,98814.72
2019-03-17T12:10:12.309Z,98825.75
2019-03-17T12:12:41.475Z,98823.98
2019-03-17T12:15:12.980Z,98831.17
2019-03-17T12:17:42.290Z,98851.02
2019-03-17T12:20:11.916Z,98844.95
2019-03-17T12:22:41.179Z,98852.92
2019-03-17T12:25:11.810Z,98836.53
2019-03-17T12:27:41.024Z,98851.02
2019-03-17T12:30:15.228Z,98846.86
2019-03-17T12:32:44.452Z,98831.64
2019-03-17T12:35:13.677Z,98835.21
2019-03-17T12:37:42.944Z,98842.21
2019-03-17T12:40:12.223Z,98850.00
2019-03-17T12:42:41.581Z,98862.17
2019-03-17T12:45:10.911Z,98849.30
2019-03-17T12:47:40.156Z,98855.46
2019-03-17T12:50:10.148Z,98872.00
2019-03-17T12:52:39.518Z,98878.55
2019-03-17T12:55:08.842Z,98869.30
2019-03-17T12:57:38.070Z,98850.78
2019-03-17T13:00:09.603Z,98853.18
2019-03-17T13:02:38.841Z,98842.72
2019-03-17T13:05:08.525Z,98847.78
2019-03-17T13:07:37.991Z,98847.16
2019-03-17T13:10:15.649Z,98856.28
2019-03-17T13:12:40.858Z,98858.27
2019-03-17T13:15:10.502Z,98859.69
2019-03-17T13:17:39.926Z,98867.00
2019-03-17T13:20:10.434Z,98873.58
2019-03-17T13:22:43.370Z,98889.52
2019-03-17T13:25:16.158Z,98884.14
2019-03-17T13:27:45.499Z,98899.89
2019-03-17T13:30:14.801Z,98895.37
2019-03-17T13:32:44.180Z,98905.13
2019-03-17T13:35:13.830Z,98901.50
2019-03-17T13:37:43.450Z,98902.64
2019-03-17T13:40:13.440Z,98917.19
2019-03-17T13:42:42.881Z,98928.84
2019-03-17T13:45:13.091Z,98925.14
2019-03-17T13:47:42.472Z,98936.02
2019-03-17T13:50:13.891Z,98943.36
2019-03-17T13:52:43.127Z,98940.86
2019-03-17T13:55:12.841Z,98939.61
2019-03-17T13:57:43.340Z,98943.77
2019-03-17T14:00:14.444Z,98942.59
2019-03-17T14:02:44.142Z,98939.22
2019-03-17T14:05:14.497Z,98945.23
2019-03-17T14:07:43.610Z,98958.59
2019-03-17T14:10:15.394Z,98953.16
2019-03-17T14:12:44.529Z,98952.55
2019-03-17T14:15:14.529Z,98948.69
2019-03-17T14:17:43.947Z,98957.03
2019-03-17T14:20:15.926Z,98954.91
2019-03-17T14:22:45.283Z,98954.52
2019-03-17T14:25:16.955Z,98956.72
2019-03-17T14:27:46.586Z,98964.37
2019-03-17T14:30:16.631Z,98955.52
2019-03-17T14:32:45.844Z,98953.06
2019-03-17T14:35:15.403Z,98965.69
2019-03-17T14:37:44.906Z,98969.98
2019-03-17T14:40:14.415Z,98961.95
2019-03-17T14:42:43.649Z,98957.73
2019-03-17T14:45:14.202Z,98965.20
2019-03-17T14:47:43.549Z,98955.08
2019-03-17T14:50:15.161Z,98966.02
2019-03-17T14:52:44.550Z,99017.69
2019-03-17T14:55:14.085Z,99101.92
2019-03-17T14:57:43.571Z,99101.06
2019-03-17T15:00:17.208Z,99109.48
2019-03-17T15:02:46.834Z,99117.25
2019-03-17T15:05:16.917Z,99131.31
2019-03-17T15:07:46.135Z,99124.41
2019-03-17T15:10:17.102Z,99111.44
2019-03-17T15:12:46.539Z,99074.75
2019-03-17T15:15:16.734Z,99083.53
2019-03-17T15:17:49.422Z,99085.61
2019-03-17T15:20:19.502Z,99076.70
2019-03-17T15:22:49.357Z,99077.95
2019-03-17T15:25:18.930Z,99091.42
2019-03-17T15:27:48.942Z,99100.13
2019-03-17T15:30:22.806Z,99084.25
2019-03-17T15:32:52.254Z,99083.35
2019-03-17T15:35:21.620Z,99089.51
2019-03-17T15:37:51.028Z,99087.75
2019-03-17T15:40:20.357Z,99093.00
2019-03-17T15:42:49.607Z,99100.03
2019-03-17T15:45:19.057Z,99109.70
2019-03-17T15:47:48.516Z,99106.28
2019-03-17T15:50:18.156Z,99119.34
2019-03-17T15:52:47.720Z,99116.73
2019-03-17T15:55:16.963Z,99118.02
2019-03-17T15:57:46.215Z,99115.77
2019-03-17T16:00:25.658Z,99115.25
2019-03-17T16:02:50.769Z,99125.25
2019-03-17T16:05:20.353Z,99126.06
2019-03-17T16:07:49.939Z,99123.87
2019-03-17T16:10:20.334Z,99122.54
2019-03-17T16:12:50.055Z,99130.73
2019-03-17T16:15:19.575Z,99132.48
2019-03-17T16:17:48.956Z,99131.11
2019-03-17T16:20:20.074Z,99129.40
2019-03-17T16:22:49.653Z,99131.63
2019-03-17T16:25:19.082Z,99131.68
2019-03-17T16:27:48.303Z,99144.98
2019-03-17T16:30:19.759Z,99147.27
2019-03-17T16:32:49.350Z,99149.97
2019-03-17T16:35:18.912Z,99153.95
2019-03-17T16:37:48.797Z,99154.95
2019-03-17T16:40:19.625Z,99153.63
2019-03-17T16:42:48.777Z,99157.20
2019-03-17T16:45:18.055Z,99150.23
2019-03-17T16:47:47.336Z,99156.83
2019-03-17T16:50:16.921Z,99162.13
2019-03-17T16:52:46.389Z,99165.69
2019-03-17T16:55:16.328Z,99157.45
2019-03-17T16:57:45.757Z,99171.97
2019-03-17T17:00:19.126Z,99170.76
2019-03-17T17:02:48.123Z,99169.03
2019-03-17T17:05:17.538Z,99173.52
2019-03-17T17:07:47.225Z,99171.84
2019-03-17T17:10:17.594Z,99189.41
2019-03-17T17:12:46.776Z,99182.41
2019-03-17T17:15:17.999Z,99185.52
2019-03-17T17:17:47.158Z,99188.59
2019-03-17T17:20:18.561Z,99188.23
2019-03-17T17:22:47.797Z,99189.56
2019-03-17T17:25:16.969Z,99199.19
2019-03-17T17:27:46.137Z,99201.35
2019-03-17T17:30:16.212Z,99201.83
2019-03-17T17:32:45.767Z,99210.16
2019-03-17T17:35:15.362Z,99215.39
2019-03-17T17:37:44.571Z,99217.63
2019-03-17T17:40:15.357Z,99223.37
2019-03-17T17:42:44.859Z,99221.23
2019-03-17T17:45:15.383Z,99221.69
2019-03-17T17:47:44.586Z,99236.20
2019-03-17T17:50:15.527Z,99287.38
2019-03-17T17:52:44.882Z,99300.94
2019-03-17T17:55:14.676Z,99287.66
2019-03-17T17:57:44.146Z,99289.12
2019-03-17T18:00:17.576Z,99282.19
2019-03-17T18:02:46.992Z,99279.16
2019-03-17T18:05:16.489Z,99272.23
2019-03-17T18:07:46.384Z,99259.61
2019-03-17T18:10:19.058Z,99260.61
2019-03-17T18:12:48.892Z,99279.02
2019-03-17T18:15:21.108Z,99264.66
2019-03-17T18:17:51.023Z,99260.77
2019-03-17T18:20:20.764Z,99263.02
2019-03-17T18:22:50.043Z,99263.47
2019-03-17T18:25:19.290Z,99260.42
2019-03-17T18:27:48.468Z,99264.38
2019-03-17T18:30:18.277Z,99264.00
2019-03-17T18:32:47.493Z,99270.11
2019-03-17T18:35:17.173Z,99269.25
2019-03-17T18:37:46.519Z,99283.72
2019-03-17T18:40:18.937Z,99281.98
2019-03-17T18:42:48.294Z,99280.23
2019-03-17T18:45:18.763Z,99286.78
2019-03-17T18:47:48.411Z,99285.47
2019-03-17T18:50:21.026Z,99292.45
2019-03-17T18:52:50.913Z,99288.09
2019-03-17T18:55:20.959Z,99296.38
2019-03-17T18:57:50.529Z,99298.13
2019-03-17T19:00:20.751Z,99304.69
2019-03-17T19:02:50.371Z,99304.69
2019-03-17T19:05:20.583Z,99315.16
2019-03-17T19:07:50.028Z,99312.98
2019-03-17T19:10:19.568Z,99320.41
2019-03-17T19:12:49.406Z,99326.08
2019-03-17T19:15:18.861Z,99324.78
2019-03-17T19:17:48.099Z,99328.27
2019-03-17T19:20:17.452Z,99333.02
2019-03-17T19:22:47.173Z,99334.38
2019-03-17T19:25:16.723Z,99340.05
2019-03-17T19:27:49.738Z,99347.05
2019-03-17T19:30:19.846Z,99348.80
2019-03-17T19:32:49.421Z,99351.86
2019-03-17T19:35:19.166Z,99355.78
2019-03-17T19:37:49.197Z,99359.71
2019-03-17T19:40:19.177Z,99366.27
2019-03-17T19:42:58.041Z,99364.95
2019-03-17T19:45:20.086Z,99363.64
2019-03-17T19:47:49.703Z,99375.47
2019-03-17T19:50:19.707Z,99380.67
2019-03-17T19:52:49.249Z,99385.08
2019-03-17T19:55:18.797Z,99387.69
2019-03-17T19:57:48.679Z,99400.79
2019-03-17T20:00:19.360Z,99406.03
2019-03-17T20:02:49.009Z,99402.53
2019-03-17T20:05:18.337Z,99408.64
2019-03-17T20:07:47.990Z,99413.89
2019-03-17T20:10:20.081Z,99415.63
2019-03-17T20:12:49.348Z,99419.56
2019-03-17T20:15:18.758Z,99423.49
2019-03-17T20:17:48.042Z,99426.52
2019-03-17T20:20:17.467Z,99429.58
2019-03-17T20:22:46.686Z,99428.70
2019-03-17T20:25:16.006Z,99439.19
2019-03-17T20:27:48.772Z,99442.67
2019-03-17T20:30:18.360Z,99446.60
2019-03-17T20:32:47.825Z,99433.95
2019-03-17T20:35:17.120Z,99437.87
2019-03-17T20:38:07.350Z,99442.67
2019-03-17T20:40:36.682Z,99449.69
2019-03-17T20:43:18.661Z,99451.43
2019-03-17T20:45:37.061Z,99457.97
2019-03-17T20:48:06.550Z,99452.30
2019-03-17T20:50:35.999Z,99462.77
2019-03-17T20:53:06.073Z,99459.30
2019-03-17T20:55:35.818Z,99463.22
2019-03-17T20:58:05.513Z,99469.76
2019-03-17T21:00:35.149Z,99476.30
2019-03-17T21:03:04.759Z,99473.66
2019-03-17T21:05:34.031Z,99471.91
2019-03-17T21:08:03.605Z,99474.52
2019-03-17T21:10:33.589Z,99476.27
2019-03-17T21:13:03.003Z,99480.66
2019-03-17T21:15:32.591Z,99479.77
2019-03-17T21:18:01.878Z,99483.27
2019-03-17T21:20:31.232Z,99488.05
2019-03-17T21:23:00.422Z,99487.17
2019-03-17T21:25:29.689Z,99494.14
2019-03-17T21:27:59.059Z,99499.38
2019-03-17T21:30:28.483Z,99504.16
2019-03-17T21:32:58.303Z,99506.34
2019-03-17T21:35:27.849Z,99505.45
2019-03-17T21:37:57.359Z,99512.47
2019-03-17T21:40:26.563Z,99518.99
2019-03-17T21:42:55.707Z,99519.85
2019-03-17T21:45:27.369Z,99519.41
2019-03-17T21:47:55.827Z,99525.53
2019-03-17T21:50:25.069Z,99514.20
2019-03-17T21:52:54.259Z,99526.83
2019-03-17T21:55:23.450Z,99524.66
2019-03-17T21:57:52.707Z,99527.72
2019-03-17T22:00:22.216Z,99532.52
2019-03-17T22:02:54.627Z,99533.38
2019-03-17T22:05:22.399Z,99536.02
2019-03-17T22:07:51.696Z,99540.38
2019-03-17T22:10:20.944Z,99539.49
2019-03-17T22:12:50.340Z,99546.03
2019-03-17T22:15:19.596Z,99551.70
2019-03-17T22:17:48.759Z,99556.48
2019-03-17T22:20:17.946Z,99557.38
2019-03-17T22:22:47.107Z,99559.55
2019-03-17T22:25:16.297Z,99556.06
2019-03-17T22:27:45.441Z,99569.56
2019-03-17T22:30:17.174Z,99570.91
2019-03-17T22:32:46.301Z,99566.53
2019-03-17T22:35:15.450Z,99563.92
2019-03-17T22:37:44.696Z,99569.13
2019-03-17T22:40:17.056Z,99572.99
2019-03-17T22:42:46.374Z,99573.01
2019-03-17T22:45:15.953Z,99581.69
2019-03-17T22:47:45.136Z,99578.62
2019-03-17T22:50:14.814Z,99572.49
2019-03-17T22:52:43.964Z,99566.78
2019-03-17T22:55:13.160Z,99588.15
2019-03-17T22:57:42.303Z,99578.58
2019-03-17T23:00:16.108Z,99583.83
2019-03-17T23:02:45.253Z,99580.33
2019-03-17T23:05:14.480Z,99580.29
2019-03-17T23:07:43.650Z,99578.97
2019-03-17T23:10:12.846Z,99585.88
2019-03-17T23:12:42.018Z,99588.96
2019-03-17T23:15:11.299Z,99585.51
2019-03-17T23:17:40.727Z,99587.67
2019-03-17T23:20:10.167Z,99585.88
2019-03-17T23:22:39.325Z,99581.50
2019-03-17T23:25:08.804Z,99586.26
2019-03-17T23:27:37.947Z,99585.87
2019-03-17T23:30:08.181Z,99580.14
2019-03-17T23:32:37.332Z,99583.59
2019-03-17T23:35:06.618Z,99580.14
2019-03-17T23:37:37.639Z,99579.75
2019-03-17T23:40:09.550Z,99581.87
2019-03-17T23:42:38.168Z,99588.82
2019-03-17T23:45:07.800Z,99590.59
2019-03-17T23:47:37.016Z,99584.51
2019-03-17T23:50:06.534Z,99592.31
2019-03-17T23:52:35.782Z,99593.58
2019-03-17T23:55:05.070Z,99597.04
2019-03-17T23:57:34.198Z,99603.15
